sensor_id;sensor_type;location;lat;lon;timestamp;P1;durP1;ratioP1;P2;durP2;ratioP2
4766;SDS011;2397;53.576;9.746;2023-12-07T00:01:59;160.00;;;41.23;;
4766;SDS011;2397;53.576;9.746;2023-12-07T00:04:26;126.30;;;38.30;;
4766;SDS011;2397;53.576;9.746;2023-12-07T00:06:52;137.03;;;36.80;;
4766;SDS011;2397;53.576;9.746;2023-12-07T00:09:19;139.67;;;41.40;;
4766;SDS011;2397;53.576;9.746;2023-12-07T00:11:45;141.37;;;37.97;;
4766;SDS011;2397;53.576;9.746;2023-12-07T00:14:12;133.73;;;35.80;;
4766;SDS011;2397;53.576;9.746;2023-12-07T00:16:39;126.70;;;34.90;;
4766;SDS011;2397;53.576;9.746;2023-12-07T00:19:05;126.03;;;35.67;;
4766;SDS011;2397;53.576;9.746;2023-12-07T00:21:32;109.97;;;35.33;;
4766;SDS011;2397;53.576;9.746;2023-12-07T00:23:58;118.30;;;35.40;;
4766;SDS011;2397;53.576;9.746;2023-12-07T00:26:25;129.83;;;35.50;;
4766;SDS011;2397;53.576;9.746;2023-12-07T00:28:51;113.47;;;36.60;;
4766;SDS011;2397;53.576;9.746;2023-12-07T00:31:18;129.17;;;34.03;;
4766;SDS011;2397;53.576;9.746;2023-12-07T00:33:46;112.30;;;35.33;;
4766;SDS011;2397;53.576;9.746;2023-12-07T00:36:13;101.10;;;35.30;;
4766;SDS011;2397;53.576;9.746;2023-12-07T00:38:40;109.57;;;32.20;;
4766;SDS011;2397;53.576;9.746;2023-12-07T00:41:07;112.07;;;34.90;;
4766;SDS011;2397;53.576;9.746;2023-12-07T00:43:33;122.83;;;35.43;;
4766;SDS011;2397;53.576;9.746;2023-12-07T00:46:00;119.20;;;33.63;;
4766;SDS011;2397;53.576;9.746;2023-12-07T00:48:27;109.60;;;32.97;;
4766;SDS011;2397;53.576;9.746;2023-12-07T00:50:53;126.13;;;36.43;;
4766;SDS011;2397;53.576;9.746;2023-12-07T00:53:20;112.93;;;35.30;;
4766;SDS011;2397;53.576;9.746;2023-12-07T00:55:46;107.83;;;35.77;;
4766;SDS011;2397;53.576;9.746;2023-12-07T00:58:13;106.97;;;34.00;;
4766;SDS011;2397;53.576;9.746;2023-12-07T01:00:40;108.23;;;34.00;;
4766;SDS011;2397;53.576;9.746;2023-12-07T01:03:06;106.60;;;33.10;;
4766;SDS011;2397;53.576;9.746;2023-12-07T01:05:33;114.93;;;32.63;;
4766;SDS011;2397;53.576;9.746;2023-12-07T01:08:00;93.77;;;31.47;;
4766;SDS011;2397;53.576;9.746;2023-12-07T01:10:27;94.80;;;31.20;;
4766;SDS011;2397;53.576;9.746;2023-12-07T01:12:53;114.73;;;35.20;;
4766;SDS011;2397;53.576;9.746;2023-12-07T01:15:20;92.80;;;32.43;;
4766;SDS011;2397;53.576;9.746;2023-12-07T01:17:47;107.37;;;34.93;;
4766;SDS011;2397;53.576;9.746;2023-12-07T01:20:13;96.13;;;32.60;;
4766;SDS011;2397;53.576;9.746;2023-12-07T01:22:40;118.93;;;31.43;;
4766;SDS011;2397;53.576;9.746;2023-12-07T01:25:12;98.90;;;31.73;;
4766;SDS011;2397;53.576;9.746;2023-12-07T01:27:43;103.97;;;33.43;;
4766;SDS011;2397;53.576;9.746;2023-12-07T01:30:09;97.83;;;33.70;;
4766;SDS011;2397;53.576;9.746;2023-12-07T01:32:36;106.17;;;32.93;;
4766;SDS011;2397;53.576;9.746;2023-12-07T01:35:03;100.83;;;32.83;;
4766;SDS011;2397;53.576;9.746;2023-12-07T01:37:30;104.83;;;32.80;;
4766;SDS011;2397;53.576;9.746;2023-12-07T01:39:57;97.30;;;31.50;;
4766;SDS011;2397;53.576;9.746;2023-12-07T01:42:24;92.70;;;33.23;;
4766;SDS011;2397;53.576;9.746;2023-12-07T01:44:51;83.80;;;31.37;;
4766;SDS011;2397;53.576;9.746;2023-12-07T01:47:17;94.50;;;31.63;;
4766;SDS011;2397;53.576;9.746;2023-12-07T01:49:44;104.37;;;32.63;;
4766;SDS011;2397;53.576;9.746;2023-12-07T01:52:11;106.73;;;33.10;;
4766;SDS011;2397;53.576;9.746;2023-12-07T01:54:39;98.67;;;32.57;;
4766;SDS011;2397;53.576;9.746;2023-12-07T01:57:06;104.00;;;31.97;;
4766;SDS011;2397;53.576;9.746;2023-12-07T01:59:33;98.40;;;31.00;;
4766;SDS011;2397;53.576;9.746;2023-12-07T02:02:00;98.20;;;30.43;;
4766;SDS011;2397;53.576;9.746;2023-12-07T02:04:27;96.70;;;32.67;;
4766;SDS011;2397;53.576;9.746;2023-12-07T02:06:54;84.03;;;33.13;;
4766;SDS011;2397;53.576;9.746;2023-12-07T02:09:24;94.27;;;33.17;;
4766;SDS011;2397;53.576;9.746;2023-12-07T02:11:50;89.93;;;33.40;;
4766;SDS011;2397;53.576;9.746;2023-12-07T02:14:17;96.67;;;33.70;;
4766;SDS011;2397;53.576;9.746;2023-12-07T02:16:58;83.70;;;30.77;;
4766;SDS011;2397;53.576;9.746;2023-12-07T02:19:39;94.10;;;33.27;;
4766;SDS011;2397;53.576;9.746;2023-12-07T02:22:22;79.57;;;31.40;;
4766;SDS011;2397;53.576;9.746;2023-12-07T02:25:02;94.37;;;30.97;;
4766;SDS011;2397;53.576;9.746;2023-12-07T02:30:10;75.07;;;29.60;;
4766;SDS011;2397;53.576;9.746;2023-12-07T02:32:41;81.27;;;31.77;;
4766;SDS011;2397;53.576;9.746;2023-12-07T02:35:10;91.17;;;29.57;;
4766;SDS011;2397;53.576;9.746;2023-12-07T02:37:44;78.17;;;29.37;;
4766;SDS011;2397;53.576;9.746;2023-12-07T02:40:18;70.10;;;29.27;;
4766;SDS011;2397;53.576;9.746;2023-12-07T02:42:47;81.30;;;28.17;;
4766;SDS011;2397;53.576;9.746;2023-12-07T02:45:14;78.63;;;30.60;;
4766;SDS011;2397;53.576;9.746;2023-12-07T02:47:41;90.83;;;32.20;;
4766;SDS011;2397;53.576;9.746;2023-12-07T02:50:12;72.73;;;30.20;;
4766;SDS011;2397;53.576;9.746;2023-12-07T02:52:40;83.70;;;30.33;;
4766;SDS011;2397;53.576;9.746;2023-12-07T02:55:07;80.63;;;33.70;;
4766;SDS011;2397;53.576;9.746;2023-12-07T02:57:35;77.23;;;28.33;;
4766;SDS011;2397;53.576;9.746;2023-12-07T03:00:02;70.13;;;29.17;;
4766;SDS011;2397;53.576;9.746;2023-12-07T03:02:39;69.90;;;28.30;;
4766;SDS011;2397;53.576;9.746;2023-12-07T03:05:06;76.77;;;28.80;;
4766;SDS011;2397;53.576;9.746;2023-12-07T03:07:33;70.43;;;30.43;;
4766;SDS011;2397;53.576;9.746;2023-12-07T03:10:01;65.03;;;28.13;;
4766;SDS011;2397;53.576;9.746;2023-12-07T03:12:29;79.60;;;29.80;;
4766;SDS011;2397;53.576;9.746;2023-12-07T03:14:56;71.67;;;29.70;;
4766;SDS011;2397;53.576;9.746;2023-12-07T03:17:22;74.17;;;28.17;;
4766;SDS011;2397;53.576;9.746;2023-12-07T03:19:49;71.20;;;28.13;;
4766;SDS011;2397;53.576;9.746;2023-12-07T03:22:15;72.40;;;28.80;;
4766;SDS011;2397;53.576;9.746;2023-12-07T03:24:50;71.73;;;27.10;;
4766;SDS011;2397;53.576;9.746;2023-12-07T03:27:18;67.93;;;28.50;;
4766;SDS011;2397;53.576;9.746;2023-12-07T03:29:45;60.80;;;25.67;;
4766;SDS011;2397;53.576;9.746;2023-12-07T03:32:11;73.30;;;27.80;;
4766;SDS011;2397;53.576;9.746;2023-12-07T03:34:38;61.07;;;26.00;;
4766;SDS011;2397;53.576;9.746;2023-12-07T03:37:05;57.00;;;26.77;;
4766;SDS011;2397;53.576;9.746;2023-12-07T03:39:32;59.87;;;25.83;;
4766;SDS011;2397;53.576;9.746;2023-12-07T03:41:59;64.30;;;26.27;;
4766;SDS011;2397;53.576;9.746;2023-12-07T03:44:25;63.23;;;26.77;;
4766;SDS011;2397;53.576;9.746;2023-12-07T03:46:53;68.83;;;28.03;;
4766;SDS011;2397;53.576;9.746;2023-12-07T03:49:19;69.90;;;27.47;;
4766;SDS011;2397;53.576;9.746;2023-12-07T03:51:46;58.20;;;25.93;;
4766;SDS011;2397;53.576;9.746;2023-12-07T03:54:13;63.97;;;28.20;;
4766;SDS011;2397;53.576;9.746;2023-12-07T03:56:39;53.80;;;25.90;;
4766;SDS011;2397;53.576;9.746;2023-12-07T03:59:09;62.00;;;27.57;;
4766;SDS011;2397;53.576;9.746;2023-12-07T04:01:36;59.33;;;26.60;;
4766;SDS011;2397;53.576;9.746;2023-12-07T04:04:03;70.63;;;28.17;;
4766;SDS011;2397;53.576;9.746;2023-12-07T04:06:30;68.50;;;26.90;;
4766;SDS011;2397;53.576;9.746;2023-12-07T04:08:57;55.23;;;25.17;;
4766;SDS011;2397;53.576;9.746;2023-12-07T04:11:24;60.30;;;24.27;;
4766;SDS011;2397;53.576;9.746;2023-12-07T04:13:50;66.40;;;26.43;;
4766;SDS011;2397;53.576;9.746;2023-12-07T04:16:17;55.33;;;25.67;;
4766;SDS011;2397;53.576;9.746;2023-12-07T04:18:43;49.00;;;24.37;;
4766;SDS011;2397;53.576;9.746;2023-12-07T04:21:10;54.50;;;23.93;;
4766;SDS011;2397;53.576;9.746;2023-12-07T04:23:37;52.47;;;23.50;;
4766;SDS011;2397;53.576;9.746;2023-12-07T04:26:03;55.20;;;25.70;;
4766;SDS011;2397;53.576;9.746;2023-12-07T04:28:30;52.43;;;26.13;;
4766;SDS011;2397;53.576;9.746;2023-12-07T04:30:57;57.40;;;26.20;;
4766;SDS011;2397;53.576;9.746;2023-12-07T04:33:24;51.90;;;24.20;;
4766;SDS011;2397;53.576;9.746;2023-12-07T04:35:50;51.37;;;24.17;;
4766;SDS011;2397;53.576;9.746;2023-12-07T04:38:17;57.10;;;25.80;;
4766;SDS011;2397;53.576;9.746;2023-12-07T04:40:44;50.70;;;25.17;;
4766;SDS011;2397;53.576;9.746;2023-12-07T04:43:10;50.97;;;23.70;;
4766;SDS011;2397;53.576;9.746;2023-12-07T04:45:37;50.93;;;22.87;;
4766;SDS011;2397;53.576;9.746;2023-12-07T04:48:04;51.73;;;24.27;;
4766;SDS011;2397;53.576;9.746;2023-12-07T04:50:32;48.93;;;24.83;;
4766;SDS011;2397;53.576;9.746;2023-12-07T04:52:58;54.97;;;25.30;;
4766;SDS011;2397;53.576;9.746;2023-12-07T04:55:25;46.80;;;24.13;;
4766;SDS011;2397;53.576;9.746;2023-12-07T04:57:52;53.27;;;27.40;;
4766;SDS011;2397;53.576;9.746;2023-12-07T05:00:19;58.83;;;25.97;;
4766;SDS011;2397;53.576;9.746;2023-12-07T05:02:46;59.40;;;26.90;;
4766;SDS011;2397;53.576;9.746;2023-12-07T05:05:14;61.80;;;26.33;;
4766;SDS011;2397;53.576;9.746;2023-12-07T05:07:41;64.77;;;28.70;;
4766;SDS011;2397;53.576;9.746;2023-12-07T05:10:08;60.83;;;27.07;;
4766;SDS011;2397;53.576;9.746;2023-12-07T05:12:35;54.87;;;26.43;;
4766;SDS011;2397;53.576;9.746;2023-12-07T05:15:02;63.23;;;28.57;;
4766;SDS011;2397;53.576;9.746;2023-12-07T05:17:30;57.80;;;26.47;;
4766;SDS011;2397;53.576;9.746;2023-12-07T05:19:57;69.00;;;27.57;;
4766;SDS011;2397;53.576;9.746;2023-12-07T05:22:24;62.70;;;27.20;;
4766;SDS011;2397;53.576;9.746;2023-12-07T05:24:50;66.53;;;29.53;;
4766;SDS011;2397;53.576;9.746;2023-12-07T05:27:17;62.87;;;27.80;;
4766;SDS011;2397;53.576;9.746;2023-12-07T05:29:43;58.97;;;28.27;;
4766;SDS011;2397;53.576;9.746;2023-12-07T05:32:10;60.37;;;28.17;;
4766;SDS011;2397;53.576;9.746;2023-12-07T05:34:37;56.47;;;27.80;;
4766;SDS011;2397;53.576;9.746;2023-12-07T05:37:04;62.70;;;26.93;;
4766;SDS011;2397;53.576;9.746;2023-12-07T05:39:30;63.13;;;27.27;;
4766;SDS011;2397;53.576;9.746;2023-12-07T05:41:57;54.70;;;26.83;;
4766;SDS011;2397;53.576;9.746;2023-12-07T05:44:24;62.00;;;28.93;;
4766;SDS011;2397;53.576;9.746;2023-12-07T05:46:50;62.33;;;26.80;;
4766;SDS011;2397;53.576;9.746;2023-12-07T05:49:17;63.80;;;28.33;;
4766;SDS011;2397;53.576;9.746;2023-12-07T05:51:44;55.50;;;29.53;;
4766;SDS011;2397;53.576;9.746;2023-12-07T05:54:10;57.27;;;26.97;;
4766;SDS011;2397;53.576;9.746;2023-12-07T05:56:37;57.80;;;30.03;;
4766;SDS011;2397;53.576;9.746;2023-12-07T05:59:03;60.40;;;29.17;;
4766;SDS011;2397;53.576;9.746;2023-12-07T06:01:30;52.07;;;27.33;;
4766;SDS011;2397;53.576;9.746;2023-12-07T06:03:57;53.43;;;27.57;;
4766;SDS011;2397;53.576;9.746;2023-12-07T06:06:24;53.47;;;26.30;;
4766;SDS011;2397;53.576;9.746;2023-12-07T06:08:50;53.47;;;25.50;;
4766;SDS011;2397;53.576;9.746;2023-12-07T06:11:17;54.30;;;23.50;;
4766;SDS011;2397;53.576;9.746;2023-12-07T06:13:44;45.23;;;24.77;;
4766;SDS011;2397;53.576;9.746;2023-12-07T06:16:11;49.43;;;26.23;;
4766;SDS011;2397;53.576;9.746;2023-12-07T06:18:39;46.90;;;23.77;;
4766;SDS011;2397;53.576;9.746;2023-12-07T06:21:06;46.53;;;22.40;;
4766;SDS011;2397;53.576;9.746;2023-12-07T06:23:33;46.03;;;25.17;;
4766;SDS011;2397;53.576;9.746;2023-12-07T06:26:02;53.30;;;26.73;;
4766;SDS011;2397;53.576;9.746;2023-12-07T06:28:28;44.37;;;25.07;;
4766;SDS011;2397;53.576;9.746;2023-12-07T06:30:55;44.50;;;24.40;;
4766;SDS011;2397;53.576;9.746;2023-12-07T06:33:23;54.50;;;26.97;;
4766;SDS011;2397;53.576;9.746;2023-12-07T06:35:50;49.07;;;25.50;;
4766;SDS011;2397;53.576;9.746;2023-12-07T06:38:17;54.00;;;26.57;;
4766;SDS011;2397;53.576;9.746;2023-12-07T06:40:47;46.67;;;24.97;;
4766;SDS011;2397;53.576;9.746;2023-12-07T06:43:13;51.33;;;26.20;;
4766;SDS011;2397;53.576;9.746;2023-12-07T06:45:40;57.70;;;25.43;;
4766;SDS011;2397;53.576;9.746;2023-12-07T06:48:07;48.50;;;26.50;;
4766;SDS011;2397;53.576;9.746;2023-12-07T06:50:34;55.40;;;24.43;;
4766;SDS011;2397;53.576;9.746;2023-12-07T06:53:01;52.93;;;24.87;;
4766;SDS011;2397;53.576;9.746;2023-12-07T06:55:27;50.57;;;24.10;;
4766;SDS011;2397;53.576;9.746;2023-12-07T06:57:54;45.20;;;23.20;;
4766;SDS011;2397;53.576;9.746;2023-12-07T07:00:21;49.33;;;26.90;;
4766;SDS011;2397;53.576;9.746;2023-12-07T07:02:49;54.20;;;25.30;;
4766;SDS011;2397;53.576;9.746;2023-12-07T07:05:15;45.10;;;24.57;;
4766;SDS011;2397;53.576;9.746;2023-12-07T07:07:42;53.83;;;24.90;;
4766;SDS011;2397;53.576;9.746;2023-12-07T07:10:09;47.87;;;24.20;;
4766;SDS011;2397;53.576;9.746;2023-12-07T07:12:39;48.90;;;26.07;;
4766;SDS011;2397;53.576;9.746;2023-12-07T07:15:06;50.97;;;26.23;;
4766;SDS011;2397;53.576;9.746;2023-12-07T07:17:34;44.87;;;25.33;;
4766;SDS011;2397;53.576;9.746;2023-12-07T07:20:01;40.00;;;21.57;;
4766;SDS011;2397;53.576;9.746;2023-12-07T07:22:27;41.50;;;23.20;;
4766;SDS011;2397;53.576;9.746;2023-12-07T07:24:54;41.33;;;22.73;;
4766;SDS011;2397;53.576;9.746;2023-12-07T07:27:21;39.93;;;22.37;;
4766;SDS011;2397;53.576;9.746;2023-12-07T07:29:48;49.83;;;25.47;;
4766;SDS011;2397;53.576;9.746;2023-12-07T07:32:14;40.80;;;23.40;;
4766;SDS011;2397;53.576;9.746;2023-12-07T07:34:42;38.23;;;22.57;;
4766;SDS011;2397;53.576;9.746;2023-12-07T07:37:09;42.77;;;23.00;;
4766;SDS011;2397;53.576;9.746;2023-12-07T07:39:35;41.10;;;23.23;;
4766;SDS011;2397;53.576;9.746;2023-12-07T07:42:02;40.83;;;24.60;;
4766;SDS011;2397;53.576;9.746;2023-12-07T07:44:28;49.20;;;24.23;;
4766;SDS011;2397;53.576;9.746;2023-12-07T07:46:55;48.53;;;24.90;;
4766;SDS011;2397;53.576;9.746;2023-12-07T07:49:21;46.57;;;26.60;;
4766;SDS011;2397;53.576;9.746;2023-12-07T07:51:48;47.23;;;24.47;;
4766;SDS011;2397;53.576;9.746;2023-12-07T07:54:15;52.87;;;24.40;;
4766;SDS011;2397;53.576;9.746;2023-12-07T07:56:42;52.23;;;26.53;;
4766;SDS011;2397;53.576;9.746;2023-12-07T07:59:09;47.80;;;24.60;;
4766;SDS011;2397;53.576;9.746;2023-12-07T08:01:37;50.33;;;26.23;;
4766;SDS011;2397;53.576;9.746;2023-12-07T08:04:04;49.87;;;25.07;;
4766;SDS011;2397;53.576;9.746;2023-12-07T08:06:30;45.67;;;23.93;;
4766;SDS011;2397;53.576;9.746;2023-12-07T08:09:02;50.00;;;24.40;;
4766;SDS011;2397;53.576;9.746;2023-12-07T08:11:28;48.27;;;25.40;;
4766;SDS011;2397;53.576;9.746;2023-12-07T08:13:55;47.93;;;24.13;;
4766;SDS011;2397;53.576;9.746;2023-12-07T08:16:22;50.63;;;27.10;;
4766;SDS011;2397;53.576;9.746;2023-12-07T08:18:48;47.93;;;25.00;;
4766;SDS011;2397;53.576;9.746;2023-12-07T08:21:22;48.03;;;25.90;;
4766;SDS011;2397;53.576;9.746;2023-12-07T08:23:55;51.20;;;27.17;;
4766;SDS011;2397;53.576;9.746;2023-12-07T08:26:22;45.40;;;24.47;;
4766;SDS011;2397;53.576;9.746;2023-12-07T08:28:48;49.67;;;24.30;;
4766;SDS011;2397;53.576;9.746;2023-12-07T08:31:16;58.00;;;27.93;;
4766;SDS011;2397;53.576;9.746;2023-12-07T08:33:43;52.13;;;25.80;;
4766;SDS011;2397;53.576;9.746;2023-12-07T08:36:10;63.40;;;29.33;;
4766;SDS011;2397;53.576;9.746;2023-12-07T08:38:37;58.57;;;27.43;;
4766;SDS011;2397;53.576;9.746;2023-12-07T08:41:03;55.53;;;26.63;;
4766;SDS011;2397;53.576;9.746;2023-12-07T08:43:30;57.63;;;27.87;;
4766;SDS011;2397;53.576;9.746;2023-12-07T08:45:57;60.10;;;28.77;;
4766;SDS011;2397;53.576;9.746;2023-12-07T08:48:27;65.90;;;26.03;;
4766;SDS011;2397;53.576;9.746;2023-12-07T08:50:54;64.80;;;27.30;;
4766;SDS011;2397;53.576;9.746;2023-12-07T08:53:21;79.33;;;27.03;;
4766;SDS011;2397;53.576;9.746;2023-12-07T08:55:47;75.83;;;29.33;;
4766;SDS011;2397;53.576;9.746;2023-12-07T08:58:14;59.13;;;25.80;;
4766;SDS011;2397;53.576;9.746;2023-12-07T09:00:40;95.20;;;27.80;;
4766;SDS011;2397;53.576;9.746;2023-12-07T09:03:07;130.83;;;28.60;;
4766;SDS011;2397;53.576;9.746;2023-12-07T09:05:34;85.37;;;26.43;;
4766;SDS011;2397;53.576;9.746;2023-12-07T09:08:01;88.73;;;25.77;;
4766;SDS011;2397;53.576;9.746;2023-12-07T09:10:28;94.53;;;26.97;;
4766;SDS011;2397;53.576;9.746;2023-12-07T09:12:54;82.03;;;26.43;;
4766;SDS011;2397;53.576;9.746;2023-12-07T09:15:21;159.03;;;28.50;;
4766;SDS011;2397;53.576;9.746;2023-12-07T09:17:48;109.77;;;24.60;;
4766;SDS011;2397;53.576;9.746;2023-12-07T09:20:17;96.40;;;22.90;;
4766;SDS011;2397;53.576;9.746;2023-12-07T09:22:44;173.33;;;28.70;;
4766;SDS011;2397;53.576;9.746;2023-12-07T09:25:12;147.53;;;27.27;;
4766;SDS011;2397;53.576;9.746;2023-12-07T09:27:39;57.00;;;23.53;;
4766;SDS011;2397;53.576;9.746;2023-12-07T09:30:06;122.70;;;26.13;;
4766;SDS011;2397;53.576;9.746;2023-12-07T09:32:37;58.90;;;26.30;;
4766;SDS011;2397;53.576;9.746;2023-12-07T09:35:05;132.73;;;26.37;;
4766;SDS011;2397;53.576;9.746;2023-12-07T09:37:41;117.90;;;25.33;;
4766;SDS011;2397;53.576;9.746;2023-12-07T09:40:08;132.37;;;27.40;;
4766;SDS011;2397;53.576;9.746;2023-12-07T09:42:41;113.23;;;25.50;;
4766;SDS011;2397;53.576;9.746;2023-12-07T09:45:09;95.67;;;25.60;;
4766;SDS011;2397;53.576;9.746;2023-12-07T09:47:36;72.93;;;22.53;;
4766;SDS011;2397;53.576;9.746;2023-12-07T09:50:05;87.67;;;23.70;;
4766;SDS011;2397;53.576;9.746;2023-12-07T09:52:33;87.93;;;24.43;;
4766;SDS011;2397;53.576;9.746;2023-12-07T09:55:03;98.53;;;25.17;;
4766;SDS011;2397;53.576;9.746;2023-12-07T09:57:31;91.13;;;23.80;;
4766;SDS011;2397;53.576;9.746;2023-12-07T09:59:58;59.37;;;24.13;;
4766;SDS011;2397;53.576;9.746;2023-12-07T10:02:25;75.07;;;25.97;;
4766;SDS011;2397;53.576;9.746;2023-12-07T10:05:07;121.87;;;26.53;;
4766;SDS011;2397;53.576;9.746;2023-12-07T10:07:47;57.03;;;24.77;;
4766;SDS011;2397;53.576;9.746;2023-12-07T10:10:15;63.63;;;22.00;;
4766;SDS011;2397;53.576;9.746;2023-12-07T10:12:53;84.50;;;25.57;;
4766;SDS011;2397;53.576;9.746;2023-12-07T10:15:22;72.17;;;23.90;;
4766;SDS011;2397;53.576;9.746;2023-12-07T10:17:54;68.40;;;24.27;;
4766;SDS011;2397;53.576;9.746;2023-12-07T10:20:23;53.13;;;23.23;;
4766;SDS011;2397;53.576;9.746;2023-12-07T10:25:33;91.47;;;26.70;;
4766;SDS011;2397;53.576;9.746;2023-12-07T10:28:03;57.67;;;21.97;;
4766;SDS011;2397;53.576;9.746;2023-12-07T10:30:36;86.07;;;24.57;;
4766;SDS011;2397;53.576;9.746;2023-12-07T10:33:06;59.23;;;25.83;;
4766;SDS011;2397;53.576;9.746;2023-12-07T10:35:40;50.93;;;22.43;;
4766;SDS011;2397;53.576;9.746;2023-12-07T10:38:10;63.53;;;23.20;;
4766;SDS011;2397;53.576;9.746;2023-12-07T10:40:37;82.13;;;27.03;;
4766;SDS011;2397;53.576;9.746;2023-12-07T10:43:05;74.37;;;27.07;;
4766;SDS011;2397;53.576;9.746;2023-12-07T10:45:34;76.03;;;25.43;;
4766;SDS011;2397;53.576;9.746;2023-12-07T10:48:05;57.00;;;25.37;;
4766;SDS011;2397;53.576;9.746;2023-12-07T10:50:36;64.07;;;25.23;;
4766;SDS011;2397;53.576;9.746;2023-12-07T10:53:10;68.60;;;25.50;;
4766;SDS011;2397;53.576;9.746;2023-12-07T10:55:42;59.53;;;23.63;;
4766;SDS011;2397;53.576;9.746;2023-12-07T10:58:16;40.47;;;20.30;;
4766;SDS011;2397;53.576;9.746;2023-12-07T11:00:43;52.13;;;22.97;;
4766;SDS011;2397;53.576;9.746;2023-12-07T11:03:16;40.87;;;19.87;;
4766;SDS011;2397;53.576;9.746;2023-12-07T11:05:48;39.37;;;22.10;;
4766;SDS011;2397;53.576;9.746;2023-12-07T11:08:27;44.80;;;22.33;;
4766;SDS011;2397;53.576;9.746;2023-12-07T11:11:00;43.37;;;21.40;;
4766;SDS011;2397;53.576;9.746;2023-12-07T11:13:33;40.70;;;22.00;;
4766;SDS011;2397;53.576;9.746;2023-12-07T11:16:04;42.60;;;21.67;;
4766;SDS011;2397;53.576;9.746;2023-12-07T11:18:31;43.43;;;24.53;;
4766;SDS011;2397;53.576;9.746;2023-12-07T11:20:58;50.70;;;23.20;;
4766;SDS011;2397;53.576;9.746;2023-12-07T11:23:26;41.73;;;21.23;;
4766;SDS011;2397;53.576;9.746;2023-12-07T11:25:53;40.17;;;22.67;;
4766;SDS011;2397;53.576;9.746;2023-12-07T11:28:33;37.73;;;18.30;;
4766;SDS011;2397;53.576;9.746;2023-12-07T11:31:02;44.57;;;22.87;;
4766;SDS011;2397;53.576;9.746;2023-12-07T11:33:29;52.00;;;22.53;;
4766;SDS011;2397;53.576;9.746;2023-12-07T11:38:29;42.93;;;22.53;;
4766;SDS011;2397;53.576;9.746;2023-12-07T11:40:55;43.03;;;21.70;;
4766;SDS011;2397;53.576;9.746;2023-12-07T11:46:05;40.43;;;21.23;;
4766;SDS011;2397;53.576;9.746;2023-12-07T11:48:33;40.60;;;19.93;;
4766;SDS011;2397;53.576;9.746;2023-12-07T11:51:01;40.33;;;22.33;;
4766;SDS011;2397;53.576;9.746;2023-12-07T11:53:32;40.70;;;19.90;;
4766;SDS011;2397;53.576;9.746;2023-12-07T11:56:00;37.00;;;20.10;;
4766;SDS011;2397;53.576;9.746;2023-12-07T11:58:29;36.57;;;19.60;;
4766;SDS011;2397;53.576;9.746;2023-12-07T12:00:59;33.97;;;19.33;;
4766;SDS011;2397;53.576;9.746;2023-12-07T12:03:27;33.97;;;18.77;;
4766;SDS011;2397;53.576;9.746;2023-12-07T12:05:55;37.83;;;20.40;;
4766;SDS011;2397;53.576;9.746;2023-12-07T12:08:22;40.30;;;19.27;;
4766;SDS011;2397;53.576;9.746;2023-12-07T12:10:50;42.73;;;20.50;;
4766;SDS011;2397;53.576;9.746;2023-12-07T12:13:19;41.43;;;21.83;;
4766;SDS011;2397;53.576;9.746;2023-12-07T12:15:46;35.27;;;19.80;;
4766;SDS011;2397;53.576;9.746;2023-12-07T12:18:12;38.87;;;22.63;;
4766;SDS011;2397;53.576;9.746;2023-12-07T12:20:40;37.17;;;20.23;;
4766;SDS011;2397;53.576;9.746;2023-12-07T12:23:07;42.20;;;20.80;;
4766;SDS011;2397;53.576;9.746;2023-12-07T12:25:33;40.10;;;21.07;;
4766;SDS011;2397;53.576;9.746;2023-12-07T12:28:03;36.80;;;19.17;;
4766;SDS011;2397;53.576;9.746;2023-12-07T12:30:31;35.63;;;19.77;;
4766;SDS011;2397;53.576;9.746;2023-12-07T12:32:59;34.67;;;18.83;;
4766;SDS011;2397;53.576;9.746;2023-12-07T12:35:26;39.60;;;20.57;;
4766;SDS011;2397;53.576;9.746;2023-12-07T12:37:53;41.47;;;20.57;;
4766;SDS011;2397;53.576;9.746;2023-12-07T12:40:22;39.07;;;20.27;;
4766;SDS011;2397;53.576;9.746;2023-12-07T12:42:50;41.47;;;21.00;;
4766;SDS011;2397;53.576;9.746;2023-12-07T12:45:22;34.70;;;19.27;;
4766;SDS011;2397;53.576;9.746;2023-12-07T12:47:49;35.07;;;19.10;;
4766;SDS011;2397;53.576;9.746;2023-12-07T12:50:32;36.50;;;20.57;;
4766;SDS011;2397;53.576;9.746;2023-12-07T12:53:06;36.70;;;19.73;;
4766;SDS011;2397;53.576;9.746;2023-12-07T12:55:37;38.73;;;19.10;;
4766;SDS011;2397;53.576;9.746;2023-12-07T12:58:05;36.53;;;18.77;;
4766;SDS011;2397;53.576;9.746;2023-12-07T13:00:34;38.50;;;20.63;;
4766;SDS011;2397;53.576;9.746;2023-12-07T13:03:05;32.07;;;17.80;;
4766;SDS011;2397;53.576;9.746;2023-12-07T13:05:32;33.03;;;19.90;;
4766;SDS011;2397;53.576;9.746;2023-12-07T13:08:01;39.73;;;22.10;;
4766;SDS011;2397;53.576;9.746;2023-12-07T13:10:40;32.27;;;18.60;;
4766;SDS011;2397;53.576;9.746;2023-12-07T13:13:07;35.23;;;18.60;;
4766;SDS011;2397;53.576;9.746;2023-12-07T13:15:34;31.17;;;19.23;;
4766;SDS011;2397;53.576;9.746;2023-12-07T13:18:01;35.63;;;19.67;;
4766;SDS011;2397;53.576;9.746;2023-12-07T13:20:32;39.10;;;19.90;;
4766;SDS011;2397;53.576;9.746;2023-12-07T13:23:18;38.27;;;20.90;;
4766;SDS011;2397;53.576;9.746;2023-12-07T13:25:45;41.53;;;22.53;;
4766;SDS011;2397;53.576;9.746;2023-12-07T13:28:11;40.67;;;20.90;;
4766;SDS011;2397;53.576;9.746;2023-12-07T13:30:38;36.73;;;21.07;;
4766;SDS011;2397;53.576;9.746;2023-12-07T13:33:05;34.80;;;19.30;;
4766;SDS011;2397;53.576;9.746;2023-12-07T13:35:50;38.50;;;21.03;;
4766;SDS011;2397;53.576;9.746;2023-12-07T13:38:18;34.70;;;20.17;;
4766;SDS011;2397;53.576;9.746;2023-12-07T13:40:47;36.27;;;20.40;;
4766;SDS011;2397;53.576;9.746;2023-12-07T13:43:16;29.87;;;17.90;;
4766;SDS011;2397;53.576;9.746;2023-12-07T13:45:44;42.67;;;21.30;;
4766;SDS011;2397;53.576;9.746;2023-12-07T13:48:11;37.80;;;20.07;;
4766;SDS011;2397;53.576;9.746;2023-12-07T13:50:39;37.27;;;19.73;;
4766;SDS011;2397;53.576;9.746;2023-12-07T13:53:06;34.03;;;19.13;;
4766;SDS011;2397;53.576;9.746;2023-12-07T13:55:36;37.83;;;20.37;;
4766;SDS011;2397;53.576;9.746;2023-12-07T13:58:03;37.43;;;21.17;;
4766;SDS011;2397;53.576;9.746;2023-12-07T14:00:30;34.30;;;19.07;;
4766;SDS011;2397;53.576;9.746;2023-12-07T14:02:58;34.30;;;20.57;;
4766;SDS011;2397;53.576;9.746;2023-12-07T14:05:25;33.60;;;19.53;;
4766;SDS011;2397;53.576;9.746;2023-12-07T14:07:51;34.57;;;18.47;;
4766;SDS011;2397;53.576;9.746;2023-12-07T14:10:18;40.07;;;21.07;;
4766;SDS011;2397;53.576;9.746;2023-12-07T14:12:45;37.00;;;21.50;;
4766;SDS011;2397;53.576;9.746;2023-12-07T14:15:11;39.73;;;20.40;;
4766;SDS011;2397;53.576;9.746;2023-12-07T14:17:38;35.70;;;19.97;;
4766;SDS011;2397;53.576;9.746;2023-12-07T14:20:18;38.53;;;21.20;;
4766;SDS011;2397;53.576;9.746;2023-12-07T14:23:07;32.87;;;17.67;;
4766;SDS011;2397;53.576;9.746;2023-12-07T14:25:34;39.90;;;20.70;;
4766;SDS011;2397;53.576;9.746;2023-12-07T14:28:01;33.57;;;19.40;;
4766;SDS011;2397;53.576;9.746;2023-12-07T14:30:27;42.33;;;22.07;;
4766;SDS011;2397;53.576;9.746;2023-12-07T14:32:54;33.53;;;18.40;;
4766;SDS011;2397;53.576;9.746;2023-12-07T14:35:21;39.80;;;20.60;;
4766;SDS011;2397;53.576;9.746;2023-12-07T14:37:48;41.17;;;20.57;;
4766;SDS011;2397;53.576;9.746;2023-12-07T14:40:17;33.50;;;18.70;;
4766;SDS011;2397;53.576;9.746;2023-12-07T14:42:44;39.20;;;19.70;;
4766;SDS011;2397;53.576;9.746;2023-12-07T14:45:12;36.30;;;18.83;;
4766;SDS011;2397;53.576;9.746;2023-12-07T14:47:42;36.10;;;18.93;;
4766;SDS011;2397;53.576;9.746;2023-12-07T14:50:09;31.37;;;17.60;;
4766;SDS011;2397;53.576;9.746;2023-12-07T14:52:35;34.93;;;18.10;;
4766;SDS011;2397;53.576;9.746;2023-12-07T14:55:02;31.70;;;17.60;;
4766;SDS011;2397;53.576;9.746;2023-12-07T14:57:30;34.27;;;18.00;;
4766;SDS011;2397;53.576;9.746;2023-12-07T14:59:57;42.27;;;21.80;;
4766;SDS011;2397;53.576;9.746;2023-12-07T15:02:24;34.43;;;17.23;;